Time;durP1;ratioP1;P1;durP2;ratioP2;P2;SDS_P1;SDS_P2;PMS_P1;PMS_P2;Temp;Humidity;BMP_temperature;BMP_pressure;BME280_temperature;BME280_humidity;BME280_pressure;Samples;Min_cycle;Max_cycle;Signal;HPM_P1;HPM_P2
2023/07/14 00:00:08;;;;;;;1.77;1.32;;;20.80;99.90;;;;;;1946310;73;21163;-84
2023/07/14 00:03:00;;;;;;;2.58;1.30;;;20.80;99.90;;;;;;1943855;72;21715;-83
2023/07/14 00:05:51;;;;;;;2.10;1.30;;;20.60;99.90;;;;;;1940305;73;21540;-83
2023/07/14 00:08:43;;;;;;;3.12;1.70;;;20.60;99.90;;;;;;1923931;73;21133;-84
2023/07/14 00:11:34;;;;;;;3.05;1.50;;;20.50;99.90;;;;;;1946140;72;21098;-83
2023/07/14 00:14:25;;;;;;;2.90;1.52;;;20.50;99.90;;;;;;1922635;72;21116;-83
2023/07/14 00:19:55;;;;;;;2.42;1.42;;;20.20;99.90;;;;;;1939776;72;22122;-82
2023/07/14 00:22:47;;;;;;;1.95;1.10;;;20.20;99.90;;;;;;1908799;75;21122;-82
2023/07/14 00:25:39;;;;;;;2.62;1.35;;;20.10;99.90;;;;;;1895139;75;21200;-82
2023/07/14 00:28:31;;;;;;;2.67;1.30;;;20.10;99.90;;;;;;1893722;75;21569;-82
2023/07/14 00:31:23;;;;;;;2.00;1.47;;;20.00;99.90;;;;;;1901431;75;21256;-83
2023/07/14 00:34:14;;;;;;;2.35;1.60;;;20.00;99.90;;;;;;1899438;75;21162;-83
2023/07/14 00:37:06;;;;;;;2.35;1.70;;;20.00;99.90;;;;;;1898532;75;21059;-83
2023/07/14 00:39:57;;;;;;;3.25;1.55;;;20.00;99.90;;;;;;1886419;75;21118;-83
2023/07/14 00:45:30;;;;;;;3.10;1.60;;;19.80;99.90;;;;;;1955763;72;22563;-83
2023/07/14 00:48:25;;;;;;;2.85;1.62;;;19.90;99.90;;;;;;1896075;75;21168;-84
2023/07/14 00:51:17;;;;;;;3.15;1.32;;;20.10;99.90;;;;;;1887185;75;21147;-83
2023/07/14 00:54:23;;;;;;;2.65;1.52;;;20.10;99.90;;;;;;1889518;75;21613;-83
2023/07/14 00:59:59;;;;;;;1.40;1.17;;;20.20;99.90;;;;;;1935286;72;22146;-83
2023/07/14 01:05:31;;;;;;;2.30;1.40;;;20.10;99.90;;;;;;1949579;72;22444;-83
2023/07/14 01:08:23;;;;;;;1.95;1.20;;;20.20;99.90;;;;;;1903388;75;21102;-83
2023/07/14 01:11:17;;;;;;;2.05;1.05;;;20.20;99.90;;;;;;1902330;73;21148;-83
2023/07/14 01:14:13;;;;;;;3.65;1.22;;;20.20;99.90;;;;;;1906212;75;21101;-83
2023/07/14 01:19:49;;;;;;;3.00;1.37;;;20.20;99.90;;;;;;1922330;72;22157;-84
2023/07/14 01:25:26;;;;;;;4.42;1.32;;;20.10;99.90;;;;;;1942049;72;22257;-84
2023/07/14 01:30:59;;;;;;;2.55;1.55;;;19.90;99.90;;;;;;1937672;72;22157;-82
2023/07/14 01:33:52;;;;;;;3.15;1.05;;;19.80;99.90;;;;;;1820757;77;21079;-83
2023/07/14 01:39:23;;;;;;;1.67;1.10;;;19.70;99.90;;;;;;1958264;72;22135;-83
2023/07/14 01:42:15;;;;;;;3.05;1.20;;;19.70;99.90;;;;;;1922053;73;21191;-83
2023/07/14 01:45:12;;;;;;;2.45;1.50;;;19.80;99.90;;;;;;1920884;73;21047;-84
2023/07/14 01:48:05;;;;;;;2.65;1.35;;;19.80;99.90;;;;;;1932725;73;21094;-84
2023/07/14 01:50:59;;;;;;;1.80;1.20;;;19.90;99.90;;;;;;1924206;73;21102;-84
2023/07/14 01:53:55;;;;;;;2.77;1.22;;;19.80;99.90;;;;;;1926103;73;21103;-83
2023/07/14 01:56:47;;;;;;;2.37;1.40;;;19.80;99.90;;;;;;1929434;73;21136;-83
2023/07/14 01:59:42;;;;;;;2.77;1.27;;;19.60;99.90;;;;;;1917275;73;21076;-83
2023/07/14 02:02:36;;;;;;;2.83;1.45;;;19.60;99.90;;;;;;1915278;73;21213;-83
2023/07/14 02:05:30;;;;;;;3.80;1.50;;;19.50;99.90;;;;;;1919898;73;21122;-83
2023/07/14 02:11:01;;;;;;;2.77;1.42;;;19.40;99.90;;;;;;1923353;72;22631;-82
2023/07/14 02:16:32;;;;;;;3.58;1.15;;;19.40;99.90;;;;;;1944672;72;22333;-80
2023/07/14 02:19:26;;;;;;;2.40;1.30;;;19.40;99.90;;;;;;1916642;73;21171;-80
2023/07/14 02:24:57;;;;;;;1.90;1.20;;;19.20;99.90;;;;;;1944026;72;22202;-80
2023/07/14 02:27:48;;;;;;;4.05;1.62;;;19.20;99.90;;;;;;1897723;75;21118;-80
2023/07/14 02:30:42;;;;;;;3.65;1.27;;;19.20;99.90;;;;;;1889493;75;21106;-81
2023/07/14 02:33:37;;;;;;;2.42;1.37;;;19.10;99.90;;;;;;1891270;75;21106;-80
2023/07/14 02:36:33;;;;;;;3.02;1.47;;;19.10;99.90;;;;;;1887778;75;21559;-80
2023/07/14 02:39:25;;;;;;;2.22;1.32;;;19.20;99.90;;;;;;1910995;75;21106;-80
2023/07/14 02:42:16;;;;;;;2.80;1.60;;;19.20;99.90;;;;;;1913055;75;21130;-80
2023/07/14 02:45:10;;;;;;;4.17;1.40;;;19.30;99.90;;;;;;1899341;75;21102;-81
2023/07/14 02:50:40;;;;;;;5.45;1.42;;;19.40;99.90;;;;;;1948020;72;22150;-80
2023/07/14 02:53:31;;;;;;;2.45;1.45;;;19.40;99.90;;;;;;1937864;73;21144;-81
2023/07/14 02:56:23;;;;;;;4.78;1.60;;;19.40;99.90;;;;;;1917382;73;21173;-81
2023/07/14 02:59:16;;;;;;;2.92;1.57;;;19.50;99.90;;;;;;1917210;73;21119;-81
2023/07/14 03:04:46;;;;;;;2.30;1.30;;;19.40;99.90;;;;;;1934921;72;22150;-79
2023/07/14 03:12:49;;;;;;;2.62;1.40;;;19.40;99.90;;;;;;1960174;72;26586;-79
2023/07/14 03:15:40;;;;;;;2.95;1.70;;;19.40;99.90;;;;;;1917756;73;21055;-79
2023/07/14 03:18:32;;;;;;;3.15;1.45;;;19.30;99.90;;;;;;1924379;73;21156;-79
2023/07/14 03:21:24;;;;;;;2.72;1.55;;;19.30;99.90;;;;;;1921570;73;21063;-78
2023/07/14 03:24:15;;;;;;;2.67;1.50;;;19.20;99.90;;;;;;1935977;73;21082;-79
2023/07/14 03:27:07;;;;;;;3.87;1.72;;;19.20;99.90;;;;;;1894254;75;21114;-79
2023/07/14 03:29:59;;;;;;;3.67;1.42;;;19.20;99.90;;;;;;1891725;75;21164;-79
2023/07/14 03:32:50;;;;;;;3.62;1.57;;;19.20;99.90;;;;;;1887943;75;21615;-79
2023/07/14 03:35:41;;;;;;;3.40;1.85;;;19.20;99.90;;;;;;1919104;73;21183;-79
2023/07/14 03:38:34;;;;;;;3.67;1.80;;;19.30;99.90;;;;;;1920242;73;21142;-79
2023/07/14 03:41:25;;;;;;;2.85;1.80;;;19.30;99.90;;;;;;1929916;73;21571;-79
2023/07/14 03:46:55;;;;;;;3.37;1.62;;;19.20;99.90;;;;;;1948651;72;22617;-79
2023/07/14 03:52:27;;;;;;;2.92;1.60;;;19.20;99.90;;;;;;1948762;72;22241;-78
2023/07/14 03:55:18;;;;;;;4.83;1.67;;;19.20;99.90;;;;;;1908588;74;21202;-79
2023/07/14 04:00:48;;;;;;;6.60;1.82;;;19.20;99.90;;;;;;1934111;72;22687;-79
2023/07/14 04:03:40;;;;;;;2.95;1.70;;;19.20;99.90;;;;;;1888193;75;21115;-79
2023/07/14 04:06:31;;;;;;;3.85;1.50;;;19.10;99.90;;;;;;1881538;75;21083;-79
2023/07/14 04:09:22;;;;;;;2.60;1.50;;;19.10;99.90;;;;;;1893268;75;21133;-79
2023/07/14 04:12:13;;;;;;;2.85;1.70;;;19.20;99.90;;;;;;1890593;75;21072;-79
2023/07/14 04:15:06;;;;;;;2.20;1.50;;;19.10;99.90;;;;;;1888814;75;21111;-79
2023/07/14 04:17:58;;;;;;;3.10;1.50;;;19.00;99.90;;;;;;1892603;75;21353;-79
2023/07/14 04:20:49;;;;;;;4.60;2.00;;;19.00;99.90;;;;;;1898783;75;21102;-79
2023/07/14 04:23:40;;;;;;;8.65;1.82;;;19.00;99.90;;;;;;1878768;75;21119;-79
2023/07/14 04:26:32;;;;;;;2.90;1.82;;;19.00;99.90;;;;;;1894214;75;21095;-80
2023/07/14 04:29:23;;;;;;;5.45;1.65;;;19.00;99.90;;;;;;1886138;75;21152;-79
2023/07/14 04:32:14;;;;;;;2.45;1.60;;;19.10;99.90;;;;;;1890375;75;21118;-79
2023/07/14 04:35:07;;;;;;;3.40;1.80;;;19.10;99.90;;;;;;1875012;75;21059;-79
2023/07/14 04:37:58;;;;;;;2.42;1.65;;;19.10;99.90;;;;;;1899562;75;21090;-79
2023/07/14 04:40:50;;;;;;;3.08;1.80;;;19.00;99.90;;;;;;1882088;75;21156;-79
2023/07/14 04:43:42;;;;;;;5.85;2.27;;;19.10;99.90;;;;;;1890666;75;21129;-79
2023/07/14 04:46:33;;;;;;;2.62;1.82;;;19.10;99.90;;;;;;1872322;75;21074;-79
2023/07/14 04:49:25;;;;;;;4.05;1.77;;;19.10;99.90;;;;;;1881178;75;21114;-80
2023/07/14 04:52:17;;;;;;;3.08;1.70;;;19.10;99.90;;;;;;1885549;75;21099;-80
2023/07/14 04:55:09;;;;;;;3.98;1.77;;;19.10;99.90;;;;;;1893896;75;21202;-79
2023/07/14 04:58:01;;;;;;;4.28;1.90;;;19.20;99.90;;;;;;1882229;75;21103;-79
2023/07/14 05:00:52;;;;;;;4.65;2.12;;;19.20;99.90;;;;;;1873296;75;21079;-80
2023/07/14 05:03:44;;;;;;;2.37;1.67;;;19.20;99.90;;;;;;1897583;75;21592;-80
2023/07/14 05:06:35;;;;;;;4.25;2.15;;;19.30;99.90;;;;;;1882545;75;21159;-79
2023/07/14 05:09:28;;;;;;;3.47;1.90;;;19.30;99.90;;;;;;1887909;75;21197;-79
2023/07/14 05:14:59;;;;;;;4.20;2.17;;;19.40;99.90;;;;;;1959386;72;22242;-79
2023/07/14 05:17:51;;;;;;;2.47;2.08;;;19.40;99.90;;;;;;1923044;73;21229;-79
2023/07/14 05:20:43;;;;;;;3.05;1.67;;;19.40;99.90;;;;;;1918017;73;21117;-79
2023/07/14 05:23:35;;;;;;;2.95;1.77;;;19.50;99.90;;;;;;1917237;73;21098;-79
2023/07/14 05:26:26;;;;;;;2.40;1.82;;;19.50;99.90;;;;;;1923499;73;21039;-79
2023/07/14 05:29:18;;;;;;;3.05;1.90;;;19.60;99.90;;;;;;1917936;73;21143;-79
2023/07/14 05:34:49;;;;;;;2.55;2.02;;;19.50;99.90;;;;;;1930368;72;22305;-79
2023/07/14 05:37:40;;;;;;;4.47;2.00;;;19.50;99.90;;;;;;1907003;74;21099;-80
2023/07/14 05:40:31;;;;;;;4.55;2.15;;;19.60;99.90;;;;;;1905023;75;21047;-79
2023/07/14 05:43:27;;;;;;;2.27;1.62;;;19.70;99.90;;;;;;1913119;75;21186;-79
2023/07/14 05:46:19;;;;;;;2.83;2.02;;;19.70;99.90;;;;;;1909397;75;21127;-80
2023/07/14 05:49:11;;;;;;;3.33;2.00;;;19.70;99.90;;;;;;1901978;75;21082;-80
2023/07/14 05:52:02;;;;;;;3.85;2.10;;;19.80;99.90;;;;;;1896443;74;21644;-80
2023/07/14 05:57:36;;;;;;;2.58;1.80;;;19.90;99.90;;;;;;1945520;72;22165;-81
2023/07/14 06:00:27;;;;;;;5.05;1.80;;;20.00;99.90;;;;;;1938682;73;21143;-81
2023/07/14 06:03:18;;;;;;;3.62;1.98;;;20.10;99.90;;;;;;1925995;73;21094;-81
2023/07/14 06:06:10;;;;;;;3.33;2.08;;;20.20;99.90;;;;;;1927700;73;21090;-81
2023/07/14 06:14:24;;;;;;;3.17;1.95;;;20.20;99.90;;;;;;1964191;72;22228;-81
2023/07/14 06:17:16;;;;;;;3.02;1.92;;;20.30;99.90;;;;;;1920422;73;21132;-81
2023/07/14 06:20:11;;;;;;;4.10;1.70;;;20.30;99.90;;;;;;1920697;73;21219;-81
2023/07/14 06:23:03;;;;;;;2.20;1.90;;;20.30;99.90;;;;;;1917078;75;21103;-81
2023/07/14 06:25:57;;;;;;;2.80;1.60;;;20.30;99.90;;;;;;1921756;73;21162;-81
2023/07/14 06:28:47;;;;;;;4.22;1.75;;;20.20;99.90;;;;;;1938016;73;21417;-81
2023/07/14 06:31:39;;;;;;;3.85;1.90;;;20.40;99.90;;;;;;1917206;73;21095;-81
2023/07/14 06:34:30;;;;;;;4.65;2.37;;;20.50;99.90;;;;;;1918920;73;21142;-81
2023/07/14 06:40:00;;;;;;;2.10;1.72;;;20.70;99.90;;;;;;1942051;72;22247;-81
2023/07/14 06:42:51;;;;;;;2.45;1.60;;;20.70;99.90;;;;;;1898012;75;21130;-81
2023/07/14 06:45:44;;;;;;;3.50;2.05;;;20.80;99.90;;;;;;1915306;75;21095;-81
2023/07/14 06:48:35;;;;;;;2.90;1.70;;;20.80;99.90;;;;;;1903072;75;21110;-81
2023/07/14 06:51:27;;;;;;;3.58;1.47;;;20.90;99.90;;;;;;1894003;75;21514;-81
2023/07/14 06:54:18;;;;;;;7.05;2.10;;;21.00;99.90;;;;;;1860679;76;21097;-81
2023/07/14 06:57:10;;;;;;;2.62;1.90;;;21.00;99.90;;;;;;1911452;75;21110;-81
2023/07/14 07:00:01;;;;;;;2.95;1.75;;;21.20;99.90;;;;;;1899737;75;21147;-80
2023/07/14 07:02:53;;;;;;;4.10;1.67;;;21.30;99.90;;;;;;1900027;75;21468;-80
2023/07/14 07:05:46;;;;;;;3.30;1.92;;;21.40;99.90;;;;;;1897714;75;21113;-80
2023/07/14 07:08:37;;;;;;;3.15;1.90;;;21.50;99.90;;;;;;1904849;75;21058;-81
2023/07/14 07:11:28;;;;;;;3.95;2.10;;;21.60;99.90;;;;;;1892100;75;21164;-80
2023/07/14 07:14:19;;;;;;;3.27;1.80;;;21.80;99.90;;;;;;1892227;75;21635;-81
2023/07/14 07:17:11;;;;;;;2.92;1.80;;;22.00;99.90;;;;;;1901510;75;21188;-83
2023/07/14 07:20:04;;;;;;;2.65;1.90;;;22.10;99.90;;;;;;1891719;75;21102;-83
2023/07/14 07:22:56;;;;;;;3.55;2.20;;;22.10;99.90;;;;;;1902985;75;21175;-82
2023/07/14 07:25:50;;;;;;;4.90;2.20;;;22.10;99.90;;;;;;1891540;75;21144;-83
2023/07/14 07:28:41;;;;;;;2.98;1.92;;;22.20;99.90;;;;;;1890273;75;21066;-82
2023/07/14 07:31:32;;;;;;;2.70;1.62;;;22.20;99.90;;;;;;1903060;75;21190;-82
2023/07/14 07:34:24;;;;;;;4.70;1.98;;;22.20;99.90;;;;;;1909667;75;21157;-82
2023/07/14 07:39:56;;;;;;;2.77;2.00;;;22.00;99.90;;;;;;1951389;72;22261;-81
2023/07/14 07:42:47;;;;;;;3.12;2.00;;;22.00;99.90;;;;;;1892893;74;21106;-81
2023/07/14 07:45:39;;;;;;;4.12;2.30;;;22.10;99.90;;;;;;1888449;75;21212;-81
2023/07/14 07:48:31;;;;;;;3.15;2.00;;;22.10;99.90;;;;;;1904733;75;21106;-82
2023/07/14 07:51:23;;;;;;;6.08;2.12;;;22.10;99.90;;;;;;1904352;75;21047;-82
2023/07/14 07:54:14;;;;;;;3.08;1.90;;;22.10;99.90;;;;;;1880966;75;21210;-82
2023/07/14 07:59:43;;;;;;;3.22;1.67;;;22.10;99.90;;;;;;1942130;72;22216;-81
2023/07/14 08:02:35;;;;;;;3.60;1.92;;;22.10;99.90;;;;;;1929027;73;21132;-81
2023/07/14 08:05:27;;;;;;;5.05;1.80;;;22.10;99.90;;;;;;1939467;73;21040;-81
2023/07/14 08:08:18;;;;;;;3.27;1.75;;;22.20;99.90;;;;;;1925341;73;21876;-81
2023/07/14 08:11:11;;;;;;;3.33;1.60;;;22.10;99.90;;;;;;1932434;73;21056;-81
2023/07/14 08:14:02;;;;;;;3.40;1.50;;;22.00;99.90;;;;;;1929121;73;21059;-81
2023/07/14 08:19:33;;;;;;;4.37;1.85;;;22.00;99.90;;;;;;1950688;72;22243;-81
2023/07/14 08:25:03;;;;;;;4.72;2.00;;;22.30;99.90;;;;;;1914104;72;22283;-81
2023/07/14 08:27:54;;;;;;;3.62;1.90;;;22.40;99.90;;;;;;1905806;74;21619;-81
2023/07/14 08:30:49;;;;;;;3.42;2.05;;;22.60;99.90;;;;;;1912842;75;21390;-81
2023/07/14 08:33:43;;;;;;;2.80;1.95;;;22.70;99.90;;;;;;1847703;77;21146;-81
2023/07/14 08:36:34;;;;;;;3.22;1.57;;;22.80;99.90;;;;;;1907564;73;21112;-83
2023/07/14 08:39:26;;;;;;;2.70;1.85;;;22.90;99.90;;;;;;1898120;75;21103;-81
2023/07/14 08:42:27;;;;;;;5.75;2.12;;;23.00;99.90;;;;;;1907146;75;21617;-81
2023/07/14 08:45:27;;;;;;;2.85;1.80;;;23.10;99.90;;;;;;1899635;75;21180;-81
2023/07/14 08:51:03;;;;;;;3.33;1.90;;;23.30;99.90;;;;;;1925808;72;22384;-81
2023/07/14 08:56:35;;;;;;;3.60;2.20;;;23.60;99.90;;;;;;1938592;72;22280;-81
2023/07/14 09:02:20;;;;;;;4.23;2.33;;;23.80;99.90;;;;;;1924000;72;28585;-81
2023/07/14 09:05:14;;;;;;;4.35;2.10;;;24.10;99.90;;;;;;1895972;75;21618;-81
2023/07/14 09:08:09;;;;;;;6.85;2.30;;;24.10;99.90;;;;;;1903971;75;21140;-82
2023/07/14 09:11:03;;;;;;;2.52;1.72;;;24.20;99.90;;;;;;1902360;74;21106;-82
2023/07/14 09:13:57;;;;;;;3.45;2.00;;;24.00;99.90;;;;;;1902732;74;21121;-82
2023/07/14 09:19:35;;;;;;;2.17;1.98;;;24.00;99.90;;;;;;1960004;72;22186;-81
2023/07/14 09:22:30;;;;;;;3.05;2.10;;;23.90;99.90;;;;;;1918413;73;21168;-81
2023/07/14 09:25:27;;;;;;;1.98;1.60;;;24.00;99.90;;;;;;1917395;75;21054;-81
2023/07/14 09:28:21;;;;;;;2.72;1.50;;;24.10;99.90;;;;;;1917489;73;21123;-82
2023/07/14 09:31:19;;;;;;;2.17;1.40;;;24.20;99.90;;;;;;1917128;75;21120;-82
2023/07/14 09:34:17;;;;;;;5.03;1.82;;;24.30;99.90;;;;;;1916857;75;21079;-82
2023/07/14 09:37:14;;;;;;;2.37;1.37;;;24.40;99.90;;;;;;1916982;75;21125;-81
2023/07/14 09:40:17;;;;;;;2.10;1.40;;;24.40;99.90;;;;;;1916085;73;21094;-81
2023/07/14 09:43:06;;;;;;;3.83;1.70;;;24.50;99.90;;;;;;1917156;73;21486;-81
2023/07/14 09:45:58;;;;;;;3.40;1.55;;;24.70;99.90;;;;;;1928574;73;21086;-81
2023/07/14 09:48:52;;;;;;;2.17;1.40;;;24.70;99.90;;;;;;1939210;73;21139;-81
2023/07/14 09:51:59;;;;;;;1.98;1.45;;;24.70;99.90;;;;;;1916940;73;21504;-81
2023/07/14 09:57:34;;;;;;;5.42;1.62;;;24.70;99.90;;;;;;1940528;72;22253;-81
2023/07/14 10:00:30;;;;;;;2.85;1.52;;;24.80;99.90;;;;;;1890936;75;21078;-81
2023/07/14 10:03:25;;;;;;;3.83;1.70;;;24.90;99.90;;;;;;1907936;75;21147;-81
2023/07/14 10:06:18;;;;;;;2.05;1.52;;;25.00;99.90;;;;;;1895906;75;21135;-81
2023/07/14 10:14:31;;;;;;;1.50;1.30;;;25.10;99.90;;;;;;1941790;72;22318;-81
2023/07/14 10:20:06;;;;;;;3.65;1.60;;;25.30;99.90;;;;;;1938538;72;22241;-81
2023/07/14 10:22:58;;;;;;;2.10;1.40;;;25.30;99.90;;;;;;1896669;75;21136;-81
2023/07/14 10:25:54;;;;;;;2.80;1.32;;;25.50;99.90;;;;;;1894015;75;21102;-81
2023/07/14 10:28:48;;;;;;;1.62;1.30;;;25.50;99.90;;;;;;1909564;75;21296;-81
2023/07/14 10:31:42;;;;;;;1.90;1.22;;;25.60;99.90;;;;;;1890429;75;21187;-81
2023/07/14 10:34:46;;;;;;;2.17;1.32;;;25.60;99.90;;;;;;1906179;75;21631;-81
2023/07/14 10:40:22;;;;;;;2.40;1.62;;;25.70;99.90;;;;;;1942402;72;22802;-81
2023/07/14 10:43:19;;;;;;;2.58;1.32;;;25.80;99.90;;;;;;1934052;73;21093;-81
2023/07/14 11:53:45;;;;;;;1.27;1.00;;;27.40;99.90;;;;;;1935192;72;22338;-77
2023/07/14 11:56:40;;;;;;;1.12;1.00;;;27.40;99.90;;;;;;1903841;75;21097;-78
2023/07/14 11:59:33;;;;;;;1.20;1.10;;;27.40;99.90;;;;;;1903947;75;21622;-78
2023/07/14 12:05:32;;;;;;;1.98;1.00;;;27.60;99.90;;;;;;1926055;72;22251;-77
2023/07/14 12:08:23;;;;;;;;;;;27.70;99.90;;;;;;1911448;75;21193;-77
2023/07/14 12:11:26;;;;;;;1.30;1.00;;;27.80;99.90;;;;;;1885555;75;20248;-77
2023/07/14 12:17:50;;;;;;;1.25;1.00;;;28.00;99.90;;;;;;1945206;72;22201;-78
2023/07/14 12:20:42;;;;;;;2.33;1.20;;;28.20;99.90;;;;;;1909063;75;21148;-77
2023/07/14 12:23:36;;;;;;;2.55;1.22;;;28.20;99.90;;;;;;1902115;75;21072;-78
2023/07/14 12:26:37;;;;;;;2.10;1.15;;;28.20;99.90;;;;;;1898222;75;21087;-78
2023/07/14 12:29:28;;;;;;;2.02;1.22;;;28.30;99.90;;;;;;1888951;75;21060;-79
2023/07/14 12:34:58;;;;;;;2.05;1.02;;;28.30;99.90;;;;;;1934542;72;22589;-77
2023/07/14 12:37:50;;;;;;;2.15;1.22;;;28.30;99.90;;;;;;1891716;75;21117;-77
2023/07/14 12:40:41;;;;;;;2.72;1.10;;;28.40;99.90;;;;;;1873342;75;21100;-77
2023/07/14 12:46:18;;;;;;;1.85;1.10;;;28.50;99.90;;;;;;1951384;72;22260;-80
2023/07/14 12:49:16;;;;;;;1.62;1.10;;;28.70;99.90;;;;;;1943806;73;21176;-78
2023/07/14 12:52:10;;;;;;;1.57;1.17;;;28.80;99.90;;;;;;1931159;73;21039;-78
2023/07/14 12:55:04;;;;;;;1.70;1.12;;;28.80;99.90;;;;;;1927062;73;21056;-78
2023/07/14 12:57:55;;;;;;;2.22;1.17;;;28.90;99.90;;;;;;1919198;73;21647;-77
2023/07/14 13:00:47;;;;;;;1.00;0.90;;;28.90;99.90;;;;;;1922052;73;21624;-78
2023/07/14 13:03:39;;;;;;;1.62;0.95;;;28.90;99.90;;;;;;1921193;73;21518;-78
2023/07/14 13:06:31;;;;;;;2.12;1.10;;;29.00;99.90;;;;;;1925816;73;21117;-79
2023/07/14 13:09:25;;;;;;;2.15;1.12;;;29.20;99.90;;;;;;1923344;73;21097;-78
2023/07/14 13:14:57;;;;;;;2.02;1.12;;;29.20;99.90;;;;;;1931110;72;22201;-78
2023/07/14 13:17:50;;;;;;;2.87;1.12;;;29.30;99.90;;;;;;1907639;75;21124;-78
2023/07/14 13:20:43;;;;;;;2.12;1.00;;;29.40;99.90;;;;;;1915147;73;21175;-78
2023/07/14 13:23:35;;;;;;;2.90;1.05;;;29.40;99.90;;;;;;1909145;74;21101;-78
2023/07/14 13:29:14;;;;;;;2.02;1.07;;;29.60;99.90;;;;;;1941731;72;22111;-79
2023/07/14 13:34:50;;;;;;;4.10;1.40;;;29.70;99.90;;;;;;1929620;72;22245;-78
2023/07/14 13:37:42;;;;;;;2.55;1.52;;;29.90;99.90;;;;;;1884377;75;21135;-78
2023/07/14 13:40:37;;;;;;;1.30;1.10;;;29.80;99.90;;;;;;1884512;75;21160;-79
2023/07/14 13:43:28;;;;;;;1.52;1.20;;;30.00;99.90;;;;;;1894910;75;21171;-79
2023/07/14 13:46:24;;;;;;;1.90;1.10;;;30.20;99.90;;;;;;1893662;75;21099;-78
2023/07/14 13:49:16;;;;;;;3.05;1.55;;;30.50;99.90;;;;;;1898601;75;21615;-78
2023/07/14 13:52:13;;;;;;;1.72;1.02;;;30.60;99.90;;;;;;1895115;75;21175;-78
2023/07/14 13:55:12;;;;;;;1.35;0.95;;;30.60;99.90;;;;;;1897728;75;21574;-79
2023/07/14 13:58:03;;;;;;;1.35;1.10;;;31.00;99.90;;;;;;1912280;75;21157;-78
2023/07/14 14:00:55;;;;;;;1.95;1.00;;;31.30;99.90;;;;;;1899988;75;21112;-79
2023/07/14 14:03:47;;;;;;;1.95;1.22;;;31.50;99.90;;;;;;1902508;75;21160;-78
2023/07/14 14:06:39;;;;;;;1.45;1.20;;;31.50;99.80;;;;;;1901123;75;21162;-79
2023/07/14 14:09:30;;;;;;;1.22;0.82;;;31.70;99.60;;;;;;1903705;75;21193;-79
2023/07/14 14:12:22;;;;;;;1.95;1.07;;;31.80;98.30;;;;;;1897687;75;21078;-78
2023/07/14 14:15:18;;;;;;;1.70;0.90;;;32.10;98.10;;;;;;1892555;75;21155;-79
2023/07/14 14:18:12;;;;;;;1.30;1.15;;;32.50;96.60;;;;;;1888028;75;21135;-80
2023/07/14 14:21:03;;;;;;;2.60;1.32;;;32.60;97.00;;;;;;1891000;75;21096;-79
2023/07/14 14:23:55;;;;;;;3.60;1.05;;;33.10;95.70;;;;;;1904341;75;21083;-80
2023/07/14 14:26:46;;;;;;;2.47;1.45;;;33.30;94.70;;;;;;1897150;75;21103;-79
2023/07/14 14:29:38;;;;;;;2.67;1.20;;;33.50;94.60;;;;;;1900489;75;21087;-78
2023/07/14 14:32:32;;;;;;;1.37;0.95;;;33.40;93.60;;;;;;1901997;75;21091;-77
2023/07/14 14:35:26;;;;;;;3.05;1.10;;;33.10;92.80;;;;;;1880047;75;21118;-78
2023/07/14 14:38:20;;;;;;;1.40;1.27;;;33.20;92.60;;;;;;1885247;75;21144;-77
2023/07/14 14:41:20;;;;;;;2.58;1.35;;;33.70;90.10;;;;;;1886184;75;21115;-78
2023/07/14 14:46:58;;;;;;;2.58;1.30;;;35.00;88.30;;;;;;1933145;72;22315;-78
2023/07/14 14:49:50;;;;;;;2.33;1.20;;;35.20;89.10;;;;;;1902894;75;21164;-78
2023/07/14 14:52:41;;;;;;;1.30;1.20;;;35.70;88.10;;;;;;1910769;75;21224;-78
2023/07/14 14:55:34;;;;;;;1.98;1.27;;;35.90;85.90;;;;;;1895178;75;21205;-78
2023/07/14 14:58:26;;;;;;;1.85;1.20;;;35.70;80.80;;;;;;1896708;75;21560;-78
2023/07/14 15:01:22;;;;;;;2.37;1.35;;;35.40;82.40;;;;;;1906529;75;21188;-79
2023/07/14 15:04:20;;;;;;;2.95;1.25;;;35.20;86.40;;;;;;1890440;75;21154;-79
2023/07/14 15:07:13;;;;;;;2.10;1.05;;;35.40;86.00;;;;;;1897611;75;21098;-78
2023/07/14 15:10:05;;;;;;;2.95;1.35;;;35.30;83.80;;;;;;1894924;75;21209;-78
2023/07/14 15:12:59;;;;;;;3.70;1.20;;;35.40;82.30;;;;;;1899922;75;21078;-77
2023/07/14 15:15:54;;;;;;;2.42;1.40;;;35.70;82.60;;;;;;1914900;75;21094;-77
2023/07/14 15:18:46;;;;;;;1.17;1.00;;;36.00;80.50;;;;;;1886656;75;21168;-78
2023/07/14 15:21:38;;;;;;;1.70;1.22;;;35.70;80.00;;;;;;1900814;74;21066;-78
2023/07/14 15:24:30;;;;;;;1.40;1.20;;;35.80;78.00;;;;;;1905013;75;21082;-77
2023/07/14 15:30:04;;;;;;;1.98;1.20;;;35.80;77.50;;;;;;1952579;72;22237;-78
2023/07/14 15:35:36;;;;;;;3.30;1.00;;;36.40;74.20;;;;;;1932418;72;22300;-78
2023/07/14 15:41:13;;;;;;;1.77;1.00;;;36.00;73.60;;;;;;1940521;72;22155;-78
2023/07/14 15:44:07;;;;;;;2.25;1.10;;;36.10;73.60;;;;;;1905781;75;21071;-80
2023/07/14 15:49:37;;;;;;;1.50;1.00;;;36.50;71.90;;;;;;1942465;72;22271;-78
2023/07/14 15:52:30;;;;;;;1.30;1.07;;;36.50;69.70;;;;;;1883480;75;21105;-78
2023/07/14 15:55:23;;;;;;;3.83;1.20;;;36.30;70.60;;;;;;1892119;75;21225;-78
2023/07/14 15:58:18;;;;;;;1.40;1.10;;;36.40;70.50;;;;;;1913295;75;21123;-79
2023/07/14 16:01:14;;;;;;;1.32;1.02;;;36.60;69.40;;;;;;1906105;74;21088;-79
2023/07/14 16:04:08;;;;;;;2.45;1.05;;;36.80;68.90;;;;;;1905812;75;21098;-79
2023/07/14 16:06:59;;;;;;;1.77;1.12;;;36.50;67.70;;;;;;1902341;75;21182;-79
2023/07/14 16:09:50;;;;;;;3.52;1.27;;;36.60;67.70;;;;;;1889552;75;21142;-78
2023/07/14 16:12:42;;;;;;;2.17;1.10;;;36.70;65.50;;;;;;1890062;75;21087;-80
2023/07/14 16:15:34;;;;;;;2.00;1.12;;;36.80;64.80;;;;;;1884079;75;21135;-78
2023/07/14 16:21:08;;;;;;;1.65;1.02;;;37.00;65.20;;;;;;1934219;72;22197;-79
2023/07/14 16:24:00;;;;;;;1.55;1.10;;;37.60;63.60;;;;;;1901554;74;21098;-79
2023/07/14 16:26:53;;;;;;;1.15;1.02;;;38.10;63.00;;;;;;1903662;75;21079;-78
2023/07/14 16:29:44;;;;;;;1.57;0.90;;;38.30;60.60;;;;;;1896162;75;21149;-78
2023/07/14 16:32:35;;;;;;;1.57;1.07;;;38.00;60.00;;;;;;1910839;74;21086;-78
2023/07/14 16:35:28;;;;;;;1.10;1.00;;;37.70;60.50;;;;;;1897716;75;21250;-78
2023/07/14 16:38:23;;;;;;;1.10;1.00;;;37.80;59.20;;;;;;1869656;76;21100;-78
2023/07/14 16:41:14;;;;;;;2.30;1.10;;;37.50;58.20;;;;;;1908334;75;21194;-79
2023/07/14 16:44:13;;;;;;;1.62;1.05;;;38.00;59.90;;;;;;1889187;75;21244;-79
2023/07/14 16:47:05;;;;;;;2.15;1.10;;;38.10;60.30;;;;;;1902186;75;21150;-77
2023/07/14 16:49:59;;;;;;;3.40;1.25;;;37.90;60.00;;;;;;1886985;75;21670;-79
2023/07/14 16:55:30;;;;;;;1.37;1.00;;;38.00;58.20;;;;;;1933375;72;22671;-81
2023/07/14 16:58:25;;;;;;;2.22;1.42;;;38.40;57.50;;;;;;1912665;74;21126;-78
2023/07/14 17:01:19;;;;;;;3.30;1.22;;;38.30;58.50;;;;;;1894688;75;22191;-78
2023/07/14 17:04:18;;;;;;;3.20;1.32;;;38.90;57.50;;;;;;1899738;75;21172;-78
2023/07/14 17:07:12;;;;;;;1.70;1.27;;;39.80;56.30;;;;;;1902010;75;21690;-78
2023/07/14 17:10:04;;;;;;;2.95;1.40;;;39.90;55.80;;;;;;1884311;75;21073;-77
2023/07/14 17:12:57;;;;;;;1.57;1.10;;;39.60;55.80;;;;;;1901042;75;21089;-77
2023/07/14 17:15:51;;;;;;;1.90;1.17;;;39.90;55.10;;;;;;1893653;75;21094;-78
2023/07/14 17:18:43;;;;;;;2.12;1.30;;;39.60;54.90;;;;;;1906103;75;21129;-78
2023/07/14 17:21:35;;;;;;;1.52;1.40;;;38.90;54.60;;;;;;1884520;75;21172;-78
2023/07/14 17:24:28;;;;;;;2.92;1.10;;;38.50;54.90;;;;;;1885945;75;21121;-79
2023/07/14 17:29:57;;;;;;;1.40;1.15;;;38.80;55.20;;;;;;1923472;72;22260;-77
2023/07/14 17:32:50;;;;;;;1.37;1.27;;;39.10;54.30;;;;;;1898612;75;21145;-78
2023/07/14 17:35:49;;;;;;;1.17;1.05;;;38.40;53.50;;;;;;1896388;75;21109;-77
2023/07/14 17:41:21;;;;;;;3.25;1.00;;;37.40;55.60;;;;;;1940095;72;22171;-78
2023/07/14 17:49:35;;;;;;;1.47;1.37;;;36.20;55.60;;;;;;1944314;72;22226;-78
2023/07/14 17:57:44;;;;;;;1.90;1.20;;;36.70;52.70;;;;;;1933888;72;22520;-77
2023/07/14 18:00:35;;;;;;;1.77;1.30;;;36.90;54.60;;;;;;1908879;75;21121;-79
2023/07/14 18:03:29;;;;;;;5.45;1.27;;;37.30;55.00;;;;;;1907227;75;21094;-78
2023/07/14 18:06:21;;;;;;;1.45;1.20;;;37.60;54.40;;;;;;1903413;75;21110;-78
2023/07/14 18:11:52;;;;;;;2.87;1.30;;;37.10;55.70;;;;;;1941784;72;22232;-78
2023/07/14 18:14:45;;;;;;;1.75;1.27;;;36.80;56.20;;;;;;1906717;75;21556;-78
2023/07/14 18:17:36;;;;;;;2.47;1.30;;;36.40;56.80;;;;;;1898315;75;21059;-78
2023/07/14 18:20:31;;;;;;;1.77;1.25;;;36.20;57.10;;;;;;1894542;75;21554;-78
2023/07/14 18:23:25;;;;;;;1.75;1.50;;;36.20;57.00;;;;;;1904355;75;21168;-77
2023/07/14 18:26:16;;;;;;;2.30;1.47;;;36.30;57.20;;;;;;1893219;75;21101;-77
2023/07/14 18:31:54;;;;;;;2.35;1.52;;;34.50;57.90;;;;;;1959568;72;22500;-77
2023/07/14 18:37:25;;;;;;;2.85;1.52;;;33.30;59.10;;;;;;1943832;72;22233;-77
2023/07/14 18:40:17;;;;;;;1.72;1.62;;;33.00;60.00;;;;;;1948954;73;21102;-77
2023/07/14 18:45:48;;;;;;;1.90;1.60;;;32.10;61.50;;;;;;1930053;72;22158;-77
2023/07/14 18:48:39;;;;;;;2.70;1.40;;;31.90;61.80;;;;;;1879319;75;21099;-77
2023/07/14 18:51:33;;;;;;;2.33;1.50;;;31.70;60.90;;;;;;1889732;75;21095;-77